sensor_id;sensor_type;location;lat;lon;timestamp;P1;durP1;ratioP1;P2;durP2;ratioP2
21394;SDS011;10858;42.714;23.180;2023-03-23T00:00:12;2.17;;;1.73;;
21394;SDS011;10858;42.714;23.180;2023-03-23T00:02:39;2.67;;;2.55;;
21394;SDS011;10858;42.714;23.180;2023-03-23T00:05:05;2.60;;;2.45;;
21394;SDS011;10858;42.714;23.180;2023-03-23T00:07:32;1.50;;;1.48;;
21394;SDS011;10858;42.714;23.180;2023-03-23T00:10:00;3.72;;;3.30;;
21394;SDS011;10858;42.714;23.180;2023-03-23T00:12:28;2.78;;;2.58;;
21394;SDS011;10858;42.714;23.180;2023-03-23T00:15:03;6.55;;;4.05;;
21394;SDS011;10858;42.714;23.180;2023-03-23T00:17:32;4.97;;;3.25;;
21394;SDS011;10858;42.714;23.180;2023-03-23T00:19:59;2.53;;;2.33;;
21394;SDS011;10858;42.714;23.180;2023-03-23T00:22:27;2.28;;;2.15;;
21394;SDS011;10858;42.714;23.180;2023-03-23T00:24:53;2.50;;;2.30;;
21394;SDS011;10858;42.714;23.180;2023-03-23T00:27:20;4.13;;;3.75;;
21394;SDS011;10858;42.714;23.180;2023-03-23T00:29:48;2.10;;;2.00;;
21394;SDS011;10858;42.714;23.180;2023-03-23T00:32:17;1.73;;;1.63;;
21394;SDS011;10858;42.714;23.180;2023-03-23T00:34:46;3.17;;;2.88;;
21394;SDS011;10858;42.714;23.180;2023-03-23T00:37:14;2.60;;;2.42;;
21394;SDS011;10858;42.714;23.180;2023-03-23T00:39:44;1.85;;;1.75;;
21394;SDS011;10858;42.714;23.180;2023-03-23T00:42:15;5.32;;;3.30;;
21394;SDS011;10858;42.714;23.180;2023-03-23T00:44:41;1.83;;;1.73;;
21394;SDS011;10858;42.714;23.180;2023-03-23T00:47:11;3.13;;;2.90;;
21394;SDS011;10858;42.714;23.180;2023-03-23T00:49:37;9.57;;;5.18;;
21394;SDS011;10858;42.714;23.180;2023-03-23T00:52:04;2.67;;;2.25;;
21394;SDS011;10858;42.714;23.180;2023-03-23T00:54:31;4.47;;;3.15;;
21394;SDS011;10858;42.714;23.180;2023-03-23T00:56:59;3.25;;;2.08;;
21394;SDS011;10858;42.714;23.180;2023-03-23T00:59:25;1.90;;;1.80;;
21394;SDS011;10858;42.714;23.180;2023-03-23T01:01:52;1.88;;;1.77;;
21394;SDS011;10858;42.714;23.180;2023-03-23T01:04:18;5.65;;;3.60;;
21394;SDS011;10858;42.714;23.180;2023-03-23T01:06:47;3.35;;;3.08;;
21394;SDS011;10858;42.714;23.180;2023-03-23T01:09:15;7.15;;;3.63;;
21394;SDS011;10858;42.714;23.180;2023-03-23T01:11:44;1.52;;;1.50;;
21394;SDS011;10858;42.714;23.180;2023-03-23T01:14:12;1.25;;;1.25;;
21394;SDS011;10858;42.714;23.180;2023-03-23T01:16:40;1.88;;;1.75;;
21394;SDS011;10858;42.714;23.180;2023-03-23T01:19:06;3.55;;;3.17;;
21394;SDS011;10858;42.714;23.180;2023-03-23T01:21:33;1.63;;;1.52;;
21394;SDS011;10858;42.714;23.180;2023-03-23T01:24:00;1.25;;;1.25;;
21394;SDS011;10858;42.714;23.180;2023-03-23T01:26:27;3.40;;;2.95;;
21394;SDS011;10858;42.714;23.180;2023-03-23T01:28:53;1.58;;;1.55;;
21394;SDS011;10858;42.714;23.180;2023-03-23T01:31:21;2.45;;;2.35;;
21394;SDS011;10858;42.714;23.180;2023-03-23T01:33:49;1.45;;;1.42;;
21394;SDS011;10858;42.714;23.180;2023-03-23T01:36:17;1.92;;;1.83;;
21394;SDS011;10858;42.714;23.180;2023-03-23T01:38:46;1.33;;;1.30;;
21394;SDS011;10858;42.714;23.180;2023-03-23T01:41:13;2.03;;;1.92;;
21394;SDS011;10858;42.714;23.180;2023-03-23T01:46:42;2.33;;;2.05;;
21394;SDS011;10858;42.714;23.180;2023-03-23T01:49:19;2.05;;;1.95;;
21394;SDS011;10858;42.714;23.180;2023-03-23T01:51:56;2.30;;;1.80;;
21394;SDS011;10858;42.714;23.180;2023-03-23T01:54:31;3.50;;;2.75;;
21394;SDS011;10858;42.714;23.180;2023-03-23T01:57:01;9.05;;;4.70;;
21394;SDS011;10858;42.714;23.180;2023-03-23T01:59:31;1.75;;;1.65;;
21394;SDS011;10858;42.714;23.180;2023-03-23T02:01:59;4.57;;;3.80;;
21394;SDS011;10858;42.714;23.180;2023-03-23T02:04:27;5.70;;;4.45;;
21394;SDS011;10858;42.714;23.180;2023-03-23T02:06:55;2.72;;;2.25;;
21394;SDS011;10858;42.714;23.180;2023-03-23T02:09:24;3.88;;;2.10;;
21394;SDS011;10858;42.714;23.180;2023-03-23T02:11:51;6.93;;;4.82;;
21394;SDS011;10858;42.714;23.180;2023-03-23T02:14:19;2.78;;;2.42;;
21394;SDS011;10858;42.714;23.180;2023-03-23T02:16:51;3.08;;;2.75;;
21394;SDS011;10858;42.714;23.180;2023-03-23T02:20:32;2.67;;;2.45;;
21394;SDS011;10858;42.714;23.180;2023-03-23T02:36:05;3.08;;;2.85;;
21394;SDS011;10858;42.714;23.180;2023-03-23T02:38:43;3.10;;;2.85;;
21394;SDS011;10858;42.714;23.180;2023-03-23T02:41:16;4.25;;;3.85;;
21394;SDS011;10858;42.714;23.180;2023-03-23T02:43:47;12.98;;;2.22;;
21394;SDS011;10858;42.714;23.180;2023-03-23T02:46:15;3.38;;;2.50;;
21394;SDS011;10858;42.714;23.180;2023-03-23T02:48:43;2.10;;;2.00;;
21394;SDS011;10858;42.714;23.180;2023-03-23T02:51:11;2.35;;;2.25;;
21394;SDS011;10858;42.714;23.180;2023-03-23T02:53:39;3.42;;;3.17;;
21394;SDS011;10858;42.714;23.180;2023-03-23T02:56:08;3.70;;;1.92;;
21394;SDS011;10858;42.714;23.180;2023-03-23T02:58:37;6.43;;;3.85;;
21394;SDS011;10858;42.714;23.180;2023-03-23T03:03:42;2.30;;;2.20;;
21394;SDS011;10858;42.714;23.180;2023-03-23T03:08:41;2.47;;;2.30;;
21394;SDS011;10858;42.714;23.180;2023-03-23T03:11:14;6.00;;;3.20;;
21394;SDS011;10858;42.714;23.180;2023-03-23T03:13:47;3.25;;;3.15;;
21394;SDS011;10858;42.714;23.180;2023-03-23T03:16:25;1.70;;;1.65;;
21394;SDS011;10858;42.714;23.180;2023-03-23T03:21:29;3.05;;;2.85;;
21394;SDS011;10858;42.714;23.180;2023-03-23T03:24:00;2.05;;;1.95;;
21394;SDS011;10858;42.714;23.180;2023-03-23T03:26:29;3.30;;;2.80;;
21394;SDS011;10858;42.714;23.180;2023-03-23T03:28:59;4.13;;;3.85;;
21394;SDS011;10858;42.714;23.180;2023-03-23T03:31:30;4.65;;;2.63;;
21394;SDS011;10858;42.714;23.180;2023-03-23T03:34:01;4.90;;;4.43;;
21394;SDS011;10858;42.714;23.180;2023-03-23T03:36:29;1.92;;;1.88;;
21394;SDS011;10858;42.714;23.180;2023-03-23T03:39:06;4.30;;;4.00;;
21394;SDS011;10858;42.714;23.180;2023-03-23T03:41:35;2.10;;;2.00;;
21394;SDS011;10858;42.714;23.180;2023-03-23T03:44:03;4.35;;;3.95;;
21394;SDS011;10858;42.714;23.180;2023-03-23T03:46:31;1.77;;;1.50;;
21394;SDS011;10858;42.714;23.180;2023-03-23T03:48:58;0.98;;;0.98;;
21394;SDS011;10858;42.714;23.180;2023-03-23T03:51:26;2.90;;;2.72;;
21394;SDS011;10858;42.714;23.180;2023-03-23T03:53:53;4.07;;;3.75;;
21394;SDS011;10858;42.714;23.180;2023-03-23T03:56:20;2.08;;;1.98;;
21394;SDS011;10858;42.714;23.180;2023-03-23T03:58:47;1.83;;;1.73;;
21394;SDS011;10858;42.714;23.180;2023-03-23T04:01:15;4.63;;;4.22;;
21394;SDS011;10858;42.714;23.180;2023-03-23T04:03:43;2.10;;;1.92;;
21394;SDS011;10858;42.714;23.180;2023-03-23T04:06:10;3.03;;;2.33;;
21394;SDS011;10858;42.714;23.180;2023-03-23T04:08:39;3.60;;;2.90;;
21394;SDS011;10858;42.714;23.180;2023-03-23T04:11:09;2.75;;;2.45;;
21394;SDS011;10858;42.714;23.180;2023-03-23T04:13:37;3.42;;;2.25;;
21394;SDS011;10858;42.714;23.180;2023-03-23T04:16:04;4.85;;;3.15;;
21394;SDS011;10858;42.714;23.180;2023-03-23T04:18:31;2.45;;;2.25;;
21394;SDS011;10858;42.714;23.180;2023-03-23T04:21:00;2.45;;;2.35;;
21394;SDS011;10858;42.714;23.180;2023-03-23T04:23:28;2.03;;;1.92;;
21394;SDS011;10858;42.714;23.180;2023-03-23T04:25:58;3.70;;;3.42;;
21394;SDS011;10858;42.714;23.180;2023-03-23T04:28:25;2.40;;;2.30;;
21394;SDS011;10858;42.714;23.180;2023-03-23T04:30:53;2.33;;;2.22;;
21394;SDS011;10858;42.714;23.180;2023-03-23T04:33:20;3.60;;;2.95;;
21394;SDS011;10858;42.714;23.180;2023-03-23T04:35:50;1.67;;;1.63;;
21394;SDS011;10858;42.714;23.180;2023-03-23T04:38:21;2.08;;;2.03;;
21394;SDS011;10858;42.714;23.180;2023-03-23T04:40:50;3.25;;;2.53;;
21394;SDS011;10858;42.714;23.180;2023-03-23T04:43:21;1.98;;;1.88;;
21394;SDS011;10858;42.714;23.180;2023-03-23T04:45:54;2.63;;;2.42;;
21394;SDS011;10858;42.714;23.180;2023-03-23T04:48:29;1.65;;;1.63;;
21394;SDS011;10858;42.714;23.180;2023-03-23T04:50:58;3.40;;;3.17;;
21394;SDS011;10858;42.714;23.180;2023-03-23T04:53:27;2.28;;;2.17;;
21394;SDS011;10858;42.714;23.180;2023-03-23T04:55:54;2.20;;;2.10;;
21394;SDS011;10858;42.714;23.180;2023-03-23T04:58:21;2.25;;;2.03;;
21394;SDS011;10858;42.714;23.180;2023-03-23T05:00:49;1.13;;;1.13;;
21394;SDS011;10858;42.714;23.180;2023-03-23T05:03:19;2.65;;;2.22;;
21394;SDS011;10858;42.714;23.180;2023-03-23T05:05:45;6.75;;;6.18;;
21394;SDS011;10858;42.714;23.180;2023-03-23T05:08:20;7.93;;;4.53;;
21394;SDS011;10858;42.714;23.180;2023-03-23T05:10:52;10.98;;;3.13;;
21394;SDS011;10858;42.714;23.180;2023-03-23T05:13:23;3.45;;;3.25;;
21394;SDS011;10858;42.714;23.180;2023-03-23T05:15:49;2.20;;;2.10;;
21394;SDS011;10858;42.714;23.180;2023-03-23T05:18:16;8.25;;;5.28;;
21394;SDS011;10858;42.714;23.180;2023-03-23T05:20:42;11.02;;;4.93;;
21394;SDS011;10858;42.714;23.180;2023-03-23T05:23:11;3.30;;;3.10;;
21394;SDS011;10858;42.714;23.180;2023-03-23T05:25:38;3.70;;;3.10;;
21394;SDS011;10858;42.714;23.180;2023-03-23T05:28:09;3.72;;;3.50;;
21394;SDS011;10858;42.714;23.180;2023-03-23T05:30:36;4.32;;;3.95;;
21394;SDS011;10858;42.714;23.180;2023-03-23T05:33:03;6.82;;;6.20;;
21394;SDS011;10858;42.714;23.180;2023-03-23T05:35:31;2.95;;;2.80;;
21394;SDS011;10858;42.714;23.180;2023-03-23T05:37:57;5.43;;;4.93;;
21394;SDS011;10858;42.714;23.180;2023-03-23T05:40:25;8.07;;;5.00;;
21394;SDS011;10858;42.714;23.180;2023-03-23T05:42:53;5.00;;;4.55;;
21394;SDS011;10858;42.714;23.180;2023-03-23T05:45:20;19.92;;;6.80;;
21394;SDS011;10858;42.714;23.180;2023-03-23T05:47:48;7.45;;;5.53;;
21394;SDS011;10858;42.714;23.180;2023-03-23T05:50:15;9.68;;;5.88;;
21394;SDS011;10858;42.714;23.180;2023-03-23T05:52:41;6.88;;;5.80;;
21394;SDS011;10858;42.714;23.180;2023-03-23T05:55:08;3.60;;;3.10;;
21394;SDS011;10858;42.714;23.180;2023-03-23T05:57:35;12.82;;;4.95;;
21394;SDS011;10858;42.714;23.180;2023-03-23T06:00:02;4.50;;;3.88;;
21394;SDS011;10858;42.714;23.180;2023-03-23T06:02:48;5.72;;;3.15;;
21394;SDS011;10858;42.714;23.180;2023-03-23T06:05:15;6.10;;;4.50;;
21394;SDS011;10858;42.714;23.180;2023-03-23T06:07:42;5.95;;;3.88;;
21394;SDS011;10858;42.714;23.180;2023-03-23T06:10:09;8.45;;;4.68;;
21394;SDS011;10858;42.714;23.180;2023-03-23T06:12:36;5.72;;;4.35;;
21394;SDS011;10858;42.714;23.180;2023-03-23T06:15:04;3.97;;;3.63;;
21394;SDS011;10858;42.714;23.180;2023-03-23T06:17:33;3.47;;;2.80;;
21394;SDS011;10858;42.714;23.180;2023-03-23T06:20:01;3.45;;;3.08;;
21394;SDS011;10858;42.714;23.180;2023-03-23T06:22:36;1.70;;;1.60;;
21394;SDS011;10858;42.714;23.180;2023-03-23T06:25:03;3.80;;;3.47;;
21394;SDS011;10858;42.714;23.180;2023-03-23T06:27:33;4.63;;;3.63;;
21394;SDS011;10858;42.714;23.180;2023-03-23T06:30:00;8.50;;;3.70;;
21394;SDS011;10858;42.714;23.180;2023-03-23T06:32:28;4.93;;;3.58;;
21394;SDS011;10858;42.714;23.180;2023-03-23T06:34:56;8.70;;;2.47;;
21394;SDS011;10858;42.714;23.180;2023-03-23T06:37:22;3.05;;;2.00;;
21394;SDS011;10858;42.714;23.180;2023-03-23T06:39:50;2.25;;;2.05;;
21394;SDS011;10858;42.714;23.180;2023-03-23T06:42:16;5.25;;;2.70;;
21394;SDS011;10858;42.714;23.180;2023-03-23T06:44:43;3.00;;;2.72;;
21394;SDS011;10858;42.714;23.180;2023-03-23T06:47:10;2.33;;;2.13;;
21394;SDS011;10858;42.714;23.180;2023-03-23T06:49:36;3.53;;;2.42;;
21394;SDS011;10858;42.714;23.180;2023-03-23T06:52:02;3.42;;;3.08;;
21394;SDS011;10858;42.714;23.180;2023-03-23T06:54:29;4.70;;;2.65;;
21394;SDS011;10858;42.714;23.180;2023-03-23T06:56:55;2.85;;;1.83;;
21394;SDS011;10858;42.714;23.180;2023-03-23T06:59:21;2.65;;;2.33;;
21394;SDS011;10858;42.714;23.180;2023-03-23T07:01:48;2.78;;;2.25;;
21394;SDS011;10858;42.714;23.180;2023-03-23T07:04:14;5.03;;;3.38;;
21394;SDS011;10858;42.714;23.180;2023-03-23T07:06:41;2.72;;;2.53;;
21394;SDS011;10858;42.714;23.180;2023-03-23T07:09:07;3.30;;;2.58;;
21394;SDS011;10858;42.714;23.180;2023-03-23T07:11:34;3.13;;;2.33;;
21394;SDS011;10858;42.714;23.180;2023-03-23T07:14:01;3.38;;;2.78;;
21394;SDS011;10858;42.714;23.180;2023-03-23T07:16:27;7.05;;;2.60;;
21394;SDS011;10858;42.714;23.180;2023-03-23T07:18:53;4.35;;;2.67;;
21394;SDS011;10858;42.714;23.180;2023-03-23T07:21:20;8.50;;;4.53;;
21394;SDS011;10858;42.714;23.180;2023-03-23T07:23:46;7.18;;;3.75;;
21394;SDS011;10858;42.714;23.180;2023-03-23T07:26:12;4.75;;;3.50;;
21394;SDS011;10858;42.714;23.180;2023-03-23T07:28:38;3.20;;;2.65;;
21394;SDS011;10858;42.714;23.180;2023-03-23T07:31:05;4.05;;;3.13;;
21394;SDS011;10858;42.714;23.180;2023-03-23T07:33:33;4.18;;;2.67;;
21394;SDS011;10858;42.714;23.180;2023-03-23T07:36:00;2.97;;;2.70;;
21394;SDS011;10858;42.714;23.180;2023-03-23T07:38:27;2.55;;;2.13;;
21394;SDS011;10858;42.714;23.180;2023-03-23T07:40:54;3.53;;;2.97;;
21394;SDS011;10858;42.714;23.180;2023-03-23T07:43:21;2.88;;;1.73;;
21394;SDS011;10858;42.714;23.180;2023-03-23T07:45:47;4.05;;;1.73;;
21394;SDS011;10858;42.714;23.180;2023-03-23T07:48:14;3.10;;;2.20;;
21394;SDS011;10858;42.714;23.180;2023-03-23T07:50:40;4.95;;;2.85;;
21394;SDS011;10858;42.714;23.180;2023-03-23T07:53:09;3.60;;;2.47;;
21394;SDS011;10858;42.714;23.180;2023-03-23T07:55:36;2.13;;;1.95;;
21394;SDS011;10858;42.714;23.180;2023-03-23T07:58:02;1.30;;;1.30;;
21394;SDS011;10858;42.714;23.180;2023-03-23T08:00:28;2.80;;;2.00;;
21394;SDS011;10858;42.714;23.180;2023-03-23T08:02:56;2.92;;;1.67;;
21394;SDS011;10858;42.714;23.180;2023-03-23T08:05:23;5.03;;;2.53;;
21394;SDS011;10858;42.714;23.180;2023-03-23T08:07:51;1.85;;;1.63;;
21394;SDS011;10858;42.714;23.180;2023-03-23T08:10:19;2.45;;;1.65;;
21394;SDS011;10858;42.714;23.180;2023-03-23T08:12:50;3.22;;;2.08;;
21394;SDS011;10858;42.714;23.180;2023-03-23T08:15:18;1.23;;;1.20;;
21394;SDS011;10858;42.714;23.180;2023-03-23T08:17:46;6.28;;;3.45;;
21394;SDS011;10858;42.714;23.180;2023-03-23T08:20:13;2.47;;;1.90;;
21394;SDS011;10858;42.714;23.180;2023-03-23T08:22:41;1.27;;;1.23;;
21394;SDS011;10858;42.714;23.180;2023-03-23T08:25:10;5.32;;;2.70;;
21394;SDS011;10858;42.714;23.180;2023-03-23T08:27:39;2.15;;;1.73;;
21394;SDS011;10858;42.714;23.180;2023-03-23T08:30:12;1.60;;;1.50;;
21394;SDS011;10858;42.714;23.180;2023-03-23T08:32:41;2.22;;;2.03;;
21394;SDS011;10858;42.714;23.180;2023-03-23T08:35:08;4.55;;;2.33;;
21394;SDS011;10858;42.714;23.180;2023-03-23T08:37:35;3.20;;;2.92;;
21394;SDS011;10858;42.714;23.180;2023-03-23T08:40:02;3.88;;;3.00;;
21394;SDS011;10858;42.714;23.180;2023-03-23T08:42:34;4.82;;;2.70;;
21394;SDS011;10858;42.714;23.180;2023-03-23T08:45:02;3.05;;;2.53;;
21394;SDS011;10858;42.714;23.180;2023-03-23T08:47:33;3.63;;;1.90;;
21394;SDS011;10858;42.714;23.180;2023-03-23T08:50:01;7.25;;;2.50;;
21394;SDS011;10858;42.714;23.180;2023-03-23T08:52:28;5.45;;;2.58;;
21394;SDS011;10858;42.714;23.180;2023-03-23T08:54:55;1.85;;;1.58;;
21394;SDS011;10858;42.714;23.180;2023-03-23T08:57:22;2.15;;;1.60;;
21394;SDS011;10858;42.714;23.180;2023-03-23T08:59:51;1.60;;;1.00;;
21394;SDS011;10858;42.714;23.180;2023-03-23T09:02:25;3.25;;;1.67;;
21394;SDS011;10858;42.714;23.180;2023-03-23T09:04:52;1.63;;;1.23;;
21394;SDS011;10858;42.714;23.180;2023-03-23T09:07:21;1.92;;;1.67;;
21394;SDS011;10858;42.714;23.180;2023-03-23T09:09:48;1.65;;;1.38;;
21394;SDS011;10858;42.714;23.180;2023-03-23T09:12:14;4.18;;;2.03;;
21394;SDS011;10858;42.714;23.180;2023-03-23T09:14:41;0.60;;;0.60;;
21394;SDS011;10858;42.714;23.180;2023-03-23T09:17:07;3.70;;;2.22;;
21394;SDS011;10858;42.714;23.180;2023-03-23T09:19:35;1.40;;;1.10;;
21394;SDS011;10858;42.714;23.180;2023-03-23T09:22:01;0.88;;;0.77;;
21394;SDS011;10858;42.714;23.180;2023-03-23T09:24:28;14.10;;;3.15;;
21394;SDS011;10858;42.714;23.180;2023-03-23T09:26:55;3.47;;;1.73;;
21394;SDS011;10858;42.714;23.180;2023-03-23T09:29:23;1.00;;;0.95;;
21394;SDS011;10858;42.714;23.180;2023-03-23T09:31:50;1.83;;;1.25;;
21394;SDS011;10858;42.714;23.180;2023-03-23T09:34:17;1.20;;;1.10;;
21394;SDS011;10858;42.714;23.180;2023-03-23T09:36:43;5.90;;;1.88;;
21394;SDS011;10858;42.714;23.180;2023-03-23T09:39:10;0.70;;;0.70;;
21394;SDS011;10858;42.714;23.180;2023-03-23T09:41:49;6.47;;;1.42;;
21394;SDS011;10858;42.714;23.180;2023-03-23T09:49:53;2.50;;;2.08;;
21394;SDS011;10858;42.714;23.180;2023-03-23T09:52:37;1.55;;;1.33;;
21394;SDS011;10858;42.714;23.180;2023-03-23T09:55:12;3.03;;;1.20;;
21394;SDS011;10858;42.714;23.180;2023-03-23T09:57:50;1.58;;;1.45;;
21394;SDS011;10858;42.714;23.180;2023-03-23T10:00:26;0.82;;;0.82;;
21394;SDS011;10858;42.714;23.180;2023-03-23T10:03:00;2.35;;;1.70;;
21394;SDS011;10858;42.714;23.180;2023-03-23T10:05:46;0.98;;;0.98;;
21394;SDS011;10858;42.714;23.180;2023-03-23T10:08:15;1.27;;;1.20;;
21394;SDS011;10858;42.714;23.180;2023-03-23T10:16:14;1.95;;;1.75;;
21394;SDS011;10858;42.714;23.180;2023-03-23T10:21:37;2.13;;;1.52;;
21394;SDS011;10858;42.714;23.180;2023-03-23T10:24:10;1.33;;;1.25;;
21394;SDS011;10858;42.714;23.180;2023-03-23T10:26:45;3.03;;;1.88;;
21394;SDS011;10858;42.714;23.180;2023-03-23T10:29:49;4.78;;;1.42;;
21394;SDS011;10858;42.714;23.180;2023-03-23T10:32:42;1.83;;;1.52;;
21394;SDS011;10858;42.714;23.180;2023-03-23T10:38:36;2.08;;;1.17;;
21394;SDS011;10858;42.714;23.180;2023-03-23T10:41:16;2.85;;;1.02;;
21394;SDS011;10858;42.714;23.180;2023-03-23T10:43:44;0.85;;;0.85;;
21394;SDS011;10858;42.714;23.180;2023-03-23T10:49:26;1.45;;;1.30;;
21394;SDS011;10858;42.714;23.180;2023-03-23T10:54:36;12.45;;;2.20;;
21394;SDS011;10858;42.714;23.180;2023-03-23T10:57:20;2.28;;;1.58;;
21394;SDS011;10858;42.714;23.180;2023-03-23T10:59:48;1.75;;;0.98;;
21394;SDS011;10858;42.714;23.180;2023-03-23T11:02:19;0.60;;;0.60;;
21394;SDS011;10858;42.714;23.180;2023-03-23T11:05:03;2.15;;;1.55;;
21394;SDS011;10858;42.714;23.180;2023-03-23T11:07:59;2.72;;;1.73;;
21394;SDS011;10858;42.714;23.180;2023-03-23T11:10:37;4.13;;;1.38;;
21394;SDS011;10858;42.714;23.180;2023-03-23T11:13:10;1.13;;;1.00;;
21394;SDS011;10858;42.714;23.180;2023-03-23T11:15:41;0.98;;;0.98;;
21394;SDS011;10858;42.714;23.180;2023-03-23T11:20:43;0.80;;;0.77;;
21394;SDS011;10858;42.714;23.180;2023-03-23T11:23:29;1.75;;;1.50;;
21394;SDS011;10858;42.714;23.180;2023-03-23T11:26:14;1.42;;;1.30;;
21394;SDS011;10858;42.714;23.180;2023-03-23T11:28:43;2.47;;;1.63;;
21394;SDS011;10858;42.714;23.180;2023-03-23T11:31:15;2.22;;;1.83;;
21394;SDS011;10858;42.714;23.180;2023-03-23T11:33:48;3.20;;;2.03;;
21394;SDS011;10858;42.714;23.180;2023-03-23T11:36:30;1.38;;;1.27;;
21394;SDS011;10858;42.714;23.180;2023-03-23T11:39:02;1.02;;;0.98;;
21394;SDS011;10858;42.714;23.180;2023-03-23T11:41:44;2.22;;;1.20;;
21394;SDS011;10858;42.714;23.180;2023-03-23T11:44:10;3.83;;;2.17;;
21394;SDS011;10858;42.714;23.180;2023-03-23T11:46:39;0.52;;;0.52;;
21394;SDS011;10858;42.714;23.180;2023-03-23T11:49:32;0.85;;;0.85;;
21394;SDS011;10858;42.714;23.180;2023-03-23T11:52:21;3.20;;;1.55;;
21394;SDS011;10858;42.714;23.180;2023-03-23T11:55:00;1.55;;;1.20;;
21394;SDS011;10858;42.714;23.180;2023-03-23T11:58:06;1.80;;;1.33;;
21394;SDS011;10858;42.714;23.180;2023-03-23T12:00:39;0.52;;;0.52;;
21394;SDS011;10858;42.714;23.180;2023-03-23T12:03:26;1.70;;;1.15;;
21394;SDS011;10858;42.714;23.180;2023-03-23T12:06:06;1.30;;;1.17;;
21394;SDS011;10858;42.714;23.180;2023-03-23T12:25:02;1.55;;;1.10;;
21394;SDS011;10858;42.714;23.180;2023-03-23T12:35:44;1.42;;;1.30;;
21394;SDS011;10858;42.714;23.180;2023-03-23T12:44:06;1.35;;;0.75;;
21394;SDS011;10858;42.714;23.180;2023-03-23T13:02:54;1.27;;;1.17;;
21394;SDS011;10858;42.714;23.180;2023-03-23T13:05:35;0.60;;;0.47;;
21394;SDS011;10858;42.714;23.180;2023-03-23T13:08:19;1.00;;;0.90;;
21394;SDS011;10858;42.714;23.180;2023-03-23T13:11:01;22.33;;;1.63;;
21394;SDS011;10858;42.714;23.180;2023-03-23T13:22:49;0.98;;;0.88;;
21394;SDS011;10858;42.714;23.180;2023-03-23T13:28:01;0.82;;;0.75;;
21394;SDS011;10858;42.714;23.180;2023-03-23T13:30:29;0.88;;;0.70;;
21394;SDS011;10858;42.714;23.180;2023-03-23T13:33:03;0.88;;;0.70;;
21394;SDS011;10858;42.714;23.180;2023-03-23T13:35:35;1.15;;;0.90;;
21394;SDS011;10858;42.714;23.180;2023-03-23T13:38:11;1.25;;;1.00;;
21394;SDS011;10858;42.714;23.180;2023-03-23T13:40:44;1.10;;;0.93;;
21394;SDS011;10858;42.714;23.180;2023-03-23T13:43:11;0.95;;;0.95;;
21394;SDS011;10858;42.714;23.180;2023-03-23T13:45:45;2.20;;;1.23;;
21394;SDS011;10858;42.714;23.180;2023-03-23T13:50:55;1.25;;;1.13;;
21394;SDS011;10858;42.714;23.180;2023-03-23T13:53:29;2.13;;;1.27;;
21394;SDS011;10858;42.714;23.180;2023-03-23T13:56:18;1.30;;;0.77;;
21394;SDS011;10858;42.714;23.180;2023-03-23T13:59:05;0.68;;;0.40;;
21394;SDS011;10858;42.714;23.180;2023-03-23T14:01:34;2.42;;;1.17;;
21394;SDS011;10858;42.714;23.180;2023-03-23T14:04:04;0.95;;;0.73;;
21394;SDS011;10858;42.714;23.180;2023-03-23T14:06:35;1.38;;;1.23;;
21394;SDS011;10858;42.714;23.180;2023-03-23T14:09:06;0.82;;;0.82;;
21394;SDS011;10858;42.714;23.180;2023-03-23T14:11:56;1.25;;;1.15;;
21394;SDS011;10858;42.714;23.180;2023-03-23T14:14:26;0.82;;;0.82;;
21394;SDS011;10858;42.714;23.180;2023-03-23T14:17:05;0.28;;;0.28;;
21394;SDS011;10858;42.714;23.180;2023-03-23T14:19:38;0.93;;;0.65;;
21394;SDS011;10858;42.714;23.180;2023-03-23T14:22:16;0.57;;;0.57;;
21394;SDS011;10858;42.714;23.180;2023-03-23T14:24:52;1.08;;;0.85;;
21394;SDS011;10858;42.714;23.180;2023-03-23T14:27:26;1.70;;;1.20;;
21394;SDS011;10858;42.714;23.180;2023-03-23T14:29:59;1.60;;;0.70;;
21394;SDS011;10858;42.714;23.180;2023-03-23T14:32:29;1.25;;;0.73;;
21394;SDS011;10858;42.714;23.180;2023-03-23T14:34:57;1.17;;;0.95;;
21394;SDS011;10858;42.714;23.180;2023-03-23T14:37:26;3.92;;;1.50;;
21394;SDS011;10858;42.714;23.180;2023-03-23T14:39:53;2.80;;;1.30;;
21394;SDS011;10858;42.714;23.180;2023-03-23T14:42:39;1.48;;;1.38;;
21394;SDS011;10858;42.714;23.180;2023-03-23T14:45:07;1.48;;;1.05;;
21394;SDS011;10858;42.714;23.180;2023-03-23T14:47:38;0.77;;;0.77;;
21394;SDS011;10858;42.714;23.180;2023-03-23T14:53:02;1.45;;;0.68;;
21394;SDS011;10858;42.714;23.180;2023-03-23T14:56:03;0.95;;;0.68;;
21394;SDS011;10858;42.714;23.180;2023-03-23T14:58:36;1.88;;;1.13;;
21394;SDS011;10858;42.714;23.180;2023-03-23T15:01:07;0.82;;;0.70;;
21394;SDS011;10858;42.714;23.180;2023-03-23T15:03:43;0.55;;;0.55;;
21394;SDS011;10858;42.714;23.180;2023-03-23T15:06:26;0.77;;;0.68;;
21394;SDS011;10858;42.714;23.180;2023-03-23T15:08:56;0.50;;;0.40;;
21394;SDS011;10858;42.714;23.180;2023-03-23T15:11:27;0.22;;;0.22;;
21394;SDS011;10858;42.714;23.180;2023-03-23T15:13:58;1.48;;;0.98;;
21394;SDS011;10858;42.714;23.180;2023-03-23T15:16:32;3.08;;;1.60;;
21394;SDS011;10858;42.714;23.180;2023-03-23T15:19:00;1.45;;;1.13;;
21394;SDS011;10858;42.714;23.180;2023-03-23T15:21:30;1.75;;;0.93;;
21394;SDS011;10858;42.714;23.180;2023-03-23T15:24:21;1.85;;;1.38;;
21394;SDS011;10858;42.714;23.180;2023-03-23T15:26:50;1.15;;;1.05;;
21394;SDS011;10858;42.714;23.180;2023-03-23T15:29:18;1.58;;;1.50;;
21394;SDS011;10858;42.714;23.180;2023-03-23T15:31:54;7.88;;;1.38;;
21394;SDS011;10858;42.714;23.180;2023-03-23T15:34:31;1.48;;;0.98;;
21394;SDS011;10858;42.714;23.180;2023-03-23T15:37:20;1.13;;;0.80;;
21394;SDS011;10858;42.714;23.180;2023-03-23T15:39:52;1.83;;;1.30;;
21394;SDS011;10858;42.714;23.180;2023-03-23T15:42:24;1.27;;;1.17;;
21394;SDS011;10858;42.714;23.180;2023-03-23T15:47:37;1.85;;;1.65;;
21394;SDS011;10858;42.714;23.180;2023-03-23T15:50:52;2.78;;;1.73;;
21394;SDS011;10858;42.714;23.180;2023-03-23T15:52:53;0.80;;;0.80;;
21394;SDS011;10858;42.714;23.180;2023-03-23T15:55:21;1.45;;;1.15;;
21394;SDS011;10858;42.714;23.180;2023-03-23T15:58:00;0.47;;;0.47;;
21394;SDS011;10858;42.714;23.180;2023-03-23T16:00:33;6.70;;;0.60;;
21394;SDS011;10858;42.714;23.180;2023-03-23T16:03:00;1.70;;;1.30;;
21394;SDS011;10858;42.714;23.180;2023-03-23T16:05:30;1.42;;;0.88;;
21394;SDS011;10858;42.714;23.180;2023-03-23T16:07:57;1.65;;;1.05;;
21394;SDS011;10858;42.714;23.180;2023-03-23T16:10:24;0.88;;;0.60;;
21394;SDS011;10858;42.714;23.180;2023-03-23T16:12:51;1.23;;;1.10;;
21394;SDS011;10858;42.714;23.180;2023-03-23T16:15:18;1.05;;;0.60;;
21394;SDS011;10858;42.714;23.180;2023-03-23T16:17:45;0.40;;;0.40;;
21394;SDS011;10858;42.714;23.180;2023-03-23T16:20:15;0.60;;;0.60;;
21394;SDS011;10858;42.714;23.180;2023-03-23T16:22:43;3.20;;;1.40;;
21394;SDS011;10858;42.714;23.180;2023-03-23T16:25:11;0.70;;;0.70;;
21394;SDS011;10858;42.714;23.180;2023-03-23T16:27:38;5.97;;;2.00;;
21394;SDS011;10858;42.714;23.180;2023-03-23T16:32:46;0.70;;;0.70;;
21394;SDS011;10858;42.714;23.180;2023-03-23T16:35:13;10.45;;;1.30;;
21394;SDS011;10858;42.714;23.180;2023-03-23T16:37:58;0.40;;;0.40;;
21394;SDS011;10858;42.714;23.180;2023-03-23T16:40:24;1.52;;;1.27;;
21394;SDS011;10858;42.714;23.180;2023-03-23T16:42:51;0.95;;;0.82;;
21394;SDS011;10858;42.714;23.180;2023-03-23T16:45:18;1.13;;;1.05;;
21394;SDS011;10858;42.714;23.180;2023-03-23T16:47:44;1.83;;;1.23;;
21394;SDS011;10858;42.714;23.180;2023-03-23T16:50:12;1.23;;;1.13;;
21394;SDS011;10858;42.714;23.180;2023-03-23T16:52:41;2.33;;;1.50;;